Ames, Kansas
Current Conditions -  °F | °C
As of 12:55 PM on Sunday 23 Nov 2014 (Local Time) from KCNK Reporting Station
Overcast Overcast  
Wind Chill: 37°   Ceiling: 2600
Heat Index: 45°   Visibility: 10mi
Dew Point: 36°   Wind: 22mph
Humidity: 71%   Direction: 340°NNW
Pressure: 29.54"   Gusts: 33mph
Location:  39.4716°N, 97.7305°W
Report Text: KCNK 231855Z AUTO 34019G29KT 10SM OVC026 07/02 A2954 RMK AO2 PK WND 36037/1804 SLP001 T00720022
Loading
Personal Weather Stations






























Interactive Weather Map New forecast layout! Learn more

10-Day Weather Forecast

Advertisements
Track Severe Weather on mobile